createdAt,value
2022-11-30T00:00:51.177Z,102028.13
2022-11-30T00:03:18.076Z,102027.81
2022-11-30T00:05:45.026Z,102031.22
2022-11-30T00:08:11.957Z,102035.19
2022-11-30T00:10:39.440Z,102028.72
2022-11-30T00:13:06.308Z,102025.38
2022-11-30T00:15:33.459Z,102027.63
2022-11-30T00:18:00.357Z,102021.16
2022-11-30T00:20:29.220Z,102036.38
2022-11-30T00:22:56.981Z,102026.50
2022-11-30T00:25:24.328Z,102024.28
2022-11-30T00:27:51.118Z,102019.78
2022-11-30T00:30:17.928Z,102023.19
2022-11-30T00:32:44.777Z,102017.00
2022-11-30T00:35:11.585Z,102019.81
2022-11-30T00:37:38.339Z,102025.44
2022-11-30T00:40:06.087Z,102021.25
2022-11-30T00:42:32.891Z,102014.22
2022-11-30T00:44:59.747Z,102024.59
2022-11-30T00:47:26.547Z,102017.31
2022-11-30T00:49:53.320Z,102022.09
2022-11-30T00:52:20.117Z,102025.19
2022-11-30T00:54:47.247Z,102022.97
2022-11-30T00:57:14.394Z,102015.94
2022-11-30T00:59:41.268Z,102025.22
2022-11-30T01:02:08.864Z,102018.22
2022-11-30T01:04:35.806Z,102014.28
2022-11-30T01:07:02.490Z,102010.63
2022-11-30T01:09:29.347Z,102014.28
2022-11-30T01:11:56.136Z,102010.91
2022-11-30T01:14:22.990Z,102016.81
2022-11-30T01:16:54.734Z,102017.94
2022-11-30T01:19:22.992Z,102012.88
2022-11-30T01:21:49.898Z,102015.69
2022-11-30T01:24:16.760Z,102026.38
2022-11-30T01:26:43.467Z,102010.09
2022-11-30T01:29:10.248Z,102020.78
2022-11-30T01:31:37.300Z,102021.91
2022-11-30T01:34:04.287Z,102024.16
2022-11-30T01:36:31.047Z,102018.81
2022-11-30T01:38:58.531Z,102024.72
2022-11-30T01:41:28.159Z,102030.63
2022-11-30T01:43:56.256Z,102026.72
2022-11-30T01:46:28.201Z,102034.00
2022-11-30T01:48:57.718Z,102041.88
2022-11-30T01:51:26.129Z,102041.31
2022-11-30T01:53:52.905Z,102029.81
2022-11-30T01:56:19.721Z,102032.63
2022-11-30T01:58:46.677Z,102042.75
2022-11-30T02:01:13.595Z,102039.66
2022-11-30T02:03:44.357Z,102030.66
2022-11-30T02:06:11.490Z,102031.78
2022-11-30T02:08:38.437Z,102032.09
2022-11-30T02:11:06.555Z,102037.41
2022-11-30T02:13:33.578Z,102029.28
2022-11-30T02:16:00.657Z,102030.41
2022-11-30T02:18:32.460Z,102036.28
2022-11-30T02:20:59.531Z,102045.84
2022-11-30T02:23:27.467Z,102041.34
2022-11-30T02:26:05.590Z,102033.47
2022-11-30T02:28:42.248Z,102036.59
2022-11-30T02:31:10.810Z,102037.13
2022-11-30T02:33:39.446Z,102031.81
2022-11-30T02:36:06.848Z,102032.38
2022-11-30T02:38:34.357Z,102034.34
2022-11-30T02:41:01.062Z,102034.34
2022-11-30T02:43:28.658Z,102033.78
2022-11-30T02:46:01.877Z,102034.06
2022-11-30T02:48:33.062Z,102029.00
2022-11-30T02:51:01.606Z,102041.66
2022-11-30T02:53:28.608Z,102039.13
2022-11-30T02:55:55.788Z,102043.03
2022-11-30T02:58:22.572Z,102044.47
2022-11-30T03:00:50.368Z,102043.03
2022-11-30T03:03:17.188Z,102039.09
2022-11-30T03:05:44.109Z,102044.97
2022-11-30T03:08:11.110Z,102039.66
2022-11-30T03:10:39.456Z,102035.72
2022-11-30T03:13:06.376Z,102043.34
2022-11-30T03:15:40.456Z,102036.84
2022-11-30T03:18:11.390Z,102038.53
2022-11-30T03:20:42.790Z,102048.06
2022-11-30T03:23:10.001Z,102042.19
2022-11-30T03:25:36.831Z,102043.56
2022-11-30T03:28:03.791Z,102049.44
2022-11-30T03:30:30.695Z,102039.63
2022-11-30T03:32:59.819Z,102041.06
2022-11-30T03:35:26.552Z,102041.59
2022-11-30T03:37:53.402Z,102050.31
2022-11-30T03:40:20.154Z,102045.81
2022-11-30T03:42:48.218Z,102055.59
2022-11-30T03:45:15.274Z,102043.84
2022-11-30T03:47:47.978Z,102056.16
2022-11-30T03:50:16.768Z,102056.44
2022-11-30T03:52:43.801Z,102052.50
2022-11-30T03:55:10.675Z,102062.88
2022-11-30T03:57:37.487Z,102061.50
2022-11-30T04:00:05.281Z,102066.25
2022-11-30T04:02:44.330Z,102059.53
2022-11-30T04:05:12.530Z,102063.44
2022-11-30T04:07:39.698Z,102060.06
2022-11-30T04:10:08.673Z,102060.38
2022-11-30T04:12:36.081Z,102067.94
2022-11-30T04:15:03.064Z,102060.91
2022-11-30T04:17:29.892Z,102065.69
2022-11-30T04:19:57.526Z,102075.22
2022-11-30T04:22:28.681Z,102072.94
2022-11-30T04:24:55.511Z,102065.09
2022-11-30T04:27:22.572Z,102067.06
2022-11-30T04:29:49.321Z,102071.28
2022-11-30T04:32:16.037Z,102067.03
2022-11-30T04:34:43.776Z,102066.50
2022-11-30T04:37:10.590Z,102064.81
2022-11-30T04:39:37.285Z,102061.16
2022-11-30T04:42:04.135Z,102067.63
2022-11-30T04:44:32.427Z,102056.66
2022-11-30T04:46:59.157Z,102071.78
2022-11-30T04:49:26.386Z,102072.09
2022-11-30T04:51:55.236Z,102068.44
2022-11-30T04:54:21.992Z,102077.13
2022-11-30T04:56:48.751Z,102079.38
2022-11-30T04:59:15.540Z,102069.56
2022-11-30T05:01:42.556Z,102079.91
2022-11-30T05:04:12.831Z,102076.28
2022-11-30T05:06:40.741Z,102079.38
2022-11-30T05:09:07.482Z,102073.19
2022-11-30T05:11:34.161Z,102070.94
2022-11-30T05:14:05.366Z,102072.63
2022-11-30T05:16:32.237Z,102077.38
2022-11-30T05:18:59.310Z,102075.69
2022-11-30T05:21:30.955Z,102083.84
2022-11-30T05:23:57.772Z,102085.81
2022-11-30T05:26:25.001Z,102088.09
2022-11-30T05:28:53.726Z,102087.53
2022-11-30T05:31:23.009Z,102085.88
2022-11-30T05:33:52.761Z,102090.94
2022-11-30T05:36:19.794Z,102093.50
2022-11-30T05:38:46.916Z,102105.84
2022-11-30T05:41:13.571Z,102100.78
2022-11-30T05:43:40.496Z,102108.94
2022-11-30T05:46:09.071Z,102105.31
2022-11-30T05:48:36.346Z,102107.56
2022-11-30T05:51:07.310Z,102112.38
2022-11-30T05:53:34.356Z,102117.44
2022-11-30T05:56:04.135Z,102119.41
2022-11-30T05:58:31.546Z,102114.06
2022-11-30T06:00:58.740Z,102116.88
2022-11-30T06:03:25.850Z,102115.19
2022-11-30T06:05:53.202Z,102117.16
2022-11-30T06:08:20.380Z,102119.97
2022-11-30T06:10:47.290Z,102113.53
2022-11-30T06:13:14.766Z,102113.78
2022-11-30T06:15:42.351Z,102115.50
2022-11-30T06:18:09.901Z,102115.75
2022-11-30T06:20:37.305Z,102118.56
2022-11-30T06:23:05.185Z,102124.47
2022-11-30T06:25:32.341Z,102116.31
2022-11-30T06:27:59.155Z,102122.78
2022-11-30T06:30:26.649Z,102118.25
2022-11-30T06:32:53.544Z,102123.88
2022-11-30T06:35:20.288Z,102130.34
2022-11-30T06:37:46.989Z,102123.91
2022-11-30T06:40:14.077Z,102124.16
2022-11-30T06:42:41.238Z,102118.53
2022-11-30T06:45:08.508Z,102125.81
2022-11-30T06:47:35.559Z,102126.66
2022-11-30T06:50:02.359Z,102135.06
2022-11-30T06:52:30.350Z,102133.38
2022-11-30T06:55:00.356Z,102136.44
2022-11-30T06:57:29.160Z,102136.75
2022-11-30T06:59:56.765Z,102136.16
2022-11-30T07:02:25.070Z,102144.56
2022-11-30T07:04:55.004Z,102149.91
2022-11-30T07:07:26.010Z,102154.13
2022-11-30T07:09:57.757Z,102161.97
2022-11-30T07:12:40.935Z,102166.19
2022-11-30T07:17:57.795Z,102167.84
2022-11-30T07:20:29.722Z,102171.22
2022-11-30T07:22:57.074Z,102171.78
2022-11-30T07:25:35.283Z,102176.28
2022-11-30T07:28:17.072Z,102181.63
2022-11-30T07:30:49.326Z,102177.69
2022-11-30T07:33:23.857Z,102186.97
2022-11-30T07:36:18.393Z,102189.47
2022-11-30T07:38:49.429Z,102195.09
2022-11-30T07:41:21.561Z,102190.31
2022-11-30T07:43:56.630Z,102193.97
2022-11-30T07:46:33.410Z,102198.75
2022-11-30T07:49:03.922Z,102196.56
2022-11-30T07:51:31.562Z,102204.75
2022-11-30T07:54:16.831Z,102194.94
2022-11-30T07:57:03.123Z,102203.91
2022-11-30T07:59:29.876Z,102201.09
2022-11-30T08:01:56.738Z,102214.31
2022-11-30T08:04:23.553Z,102211.81
2022-11-30T08:06:56.207Z,102215.44
2022-11-30T08:09:23.066Z,102217.97
2022-11-30T08:11:50.296Z,102223.31
2022-11-30T08:14:17.271Z,102228.38
2022-11-30T08:16:44.842Z,102226.97
2022-11-30T08:19:11.686Z,102233.13
2022-11-30T08:21:38.471Z,102231.16
2022-11-30T08:24:05.854Z,102237.38
2022-11-30T08:26:33.860Z,102235.09
2022-11-30T08:29:01.228Z,102241.28
2022-11-30T08:31:29.485Z,102245.22
2022-11-30T08:33:57.740Z,102236.78
2022-11-30T08:36:25.431Z,102240.44
2022-11-30T08:38:52.237Z,102247.72
2022-11-30T08:41:21.595Z,102249.97
2022-11-30T08:43:49.080Z,102248.03
2022-11-30T08:46:49.168Z,102255.03
2022-11-30T08:52:16.322Z,102260.66
2022-11-30T08:54:40.037Z,102271.38
2022-11-30T08:57:06.963Z,102273.38
2022-11-30T08:59:33.773Z,102269.09
2022-11-30T09:02:00.672Z,102265.44
2022-11-30T09:04:27.651Z,102271.06
2022-11-30T09:06:59.217Z,102266.03
2022-11-30T09:09:26.389Z,102276.44
2022-11-30T09:11:53.172Z,102281.22
2022-11-30T09:14:20.091Z,102273.03
2022-11-30T09:16:46.797Z,102281.78
2022-11-30T09:19:13.568Z,102282.91
2022-11-30T09:21:40.514Z,102278.41
2022-11-30T09:24:07.490Z,102281.53
2022-11-30T09:26:34.376Z,102283.78
2022-11-30T09:29:01.166Z,102291.63
2022-11-30T09:31:28.996Z,102282.38
2022-11-30T09:33:57.333Z,102289.41
2022-11-30T09:36:27.376Z,102291.66
2022-11-30T09:38:54.997Z,102303.19
2022-11-30T09:41:29.056Z,102295.34
2022-11-30T09:44:05.196Z,102295.59
2022-11-30T09:46:41.294Z,102296.72
2022-11-30T09:49:17.432Z,102300.97
2022-11-30T09:51:44.426Z,102304.03
2022-11-30T09:54:14.363Z,102301.50
2022-11-30T09:56:42.967Z,102304.63
2022-11-30T09:59:19.446Z,102300.38
2022-11-30T10:01:52.037Z,102308.81
2022-11-30T10:04:23.576Z,102310.53
2022-11-30T10:06:58.257Z,102304.91
2022-11-30T10:09:25.327Z,102311.06
2022-11-30T10:12:01.249Z,102308.25
2022-11-30T10:14:37.693Z,102312.47
2022-11-30T10:17:14.242Z,102314.44
2022-11-30T10:19:50.286Z,102308.56
2022-11-30T10:22:26.301Z,102308.56
2022-11-30T10:25:05.937Z,102309.41
2022-11-30T10:27:45.341Z,102311.06
2022-11-30T10:30:14.537Z,102310.22
2022-11-30T10:32:43.356Z,102303.78
2022-11-30T10:35:19.237Z,102305.75
2022-11-30T10:37:47.112Z,102305.75
2022-11-30T10:40:17.730Z,102300.97
2022-11-30T10:42:50.798Z,102301.78
2022-11-30T10:45:19.255Z,102301.78
2022-11-30T10:47:49.131Z,102303.78
2022-11-30T10:50:17.147Z,102298.16
2022-11-30T10:52:45.603Z,102303.19
2022-11-30T10:55:14.129Z,102298.41
2022-11-30T10:57:40.926Z,102287.44
2022-11-30T11:00:13.865Z,102293.06
2022-11-30T11:02:47.185Z,102299.53
2022-11-30T11:05:15.290Z,102299.81
2022-11-30T11:07:51.453Z,102297.00
2022-11-30T11:10:19.908Z,102301.25
2022-11-30T11:12:52.115Z,102303.19
2022-11-30T11:15:20.686Z,102298.41
2022-11-30T11:17:47.497Z,102295.88
2022-11-30T11:20:23.243Z,102293.06
2022-11-30T11:22:50.242Z,102298.69
2022-11-30T11:25:24.873Z,102297.03
2022-11-30T11:27:53.748Z,102297.31
2022-11-30T11:30:30.471Z,102293.66
2022-11-30T11:32:58.719Z,102300.69
2022-11-30T11:35:37.576Z,102297.03
2022-11-30T11:38:05.742Z,102298.16
2022-11-30T11:40:32.525Z,102296.47
2022-11-30T11:43:00.104Z,102296.19
2022-11-30T11:45:29.632Z,102295.91
2022-11-30T11:48:04.579Z,102293.63
2022-11-30T11:53:42.663Z,102293.94
2022-11-30T11:56:18.533Z,102299.84
2022-11-30T11:58:48.651Z,102291.13
2022-11-30T12:04:09.626Z,102298.72
2022-11-30T12:06:37.309Z,102304.06
2022-11-30T12:09:08.088Z,102304.88
2022-11-30T12:11:42.166Z,102296.75
2022-11-30T12:14:12.373Z,102306.88
2022-11-30T12:16:42.337Z,102305.47
2022-11-30T12:19:12.360Z,102308.84
2022-11-30T12:21:42.406Z,102309.41
2022-11-30T12:24:09.680Z,102311.09
2022-11-30T12:26:42.092Z,102311.63
2022-11-30T12:29:12.105Z,102302.94
2022-11-30T12:31:46.097Z,102310.25
2022-11-30T12:34:13.552Z,102314.75
2022-11-30T12:36:50.129Z,102305.16
2022-11-30T12:39:20.165Z,102308.81
2022-11-30T12:41:47.512Z,102309.41
2022-11-30T12:44:17.659Z,102302.94
2022-11-30T12:46:47.726Z,102302.66
2022-11-30T12:49:22.757Z,102307.97
2022-11-30T12:51:52.729Z,102307.97
2022-11-30T12:54:22.780Z,102304.03
2022-11-30T12:56:54.467Z,102306.84
2022-11-30T12:59:24.179Z,102306.59
2022-11-30T13:01:57.941Z,102313.91
2022-11-30T13:04:27.991Z,102307.44
2022-11-30T13:06:58.844Z,102310.25
2022-11-30T13:09:30.459Z,102311.38
2022-11-30T13:12:00.349Z,102309.41
2022-11-30T13:14:28.610Z,102308.56
2022-11-30T13:16:58.564Z,102306.84
2022-11-30T13:19:25.823Z,102308.81
2022-11-30T13:21:56.040Z,102306.31
2022-11-30T13:24:29.153Z,102301.81
2022-11-30T13:26:59.153Z,102310.53
2022-11-30T13:29:27.780Z,102302.94
2022-11-30T13:31:57.870Z,102302.34
2022-11-30T13:34:28.032Z,102311.38
2022-11-30T13:36:58.042Z,102309.97
2022-11-30T13:39:26.224Z,102306.84
2022-11-30T13:42:01.733Z,102306.84
2022-11-30T13:44:30.268Z,102312.22
2022-11-30T13:46:57.908Z,102309.66
2022-11-30T13:49:28.840Z,102313.63
2022-11-30T13:52:20.585Z,102312.47
2022-11-30T13:54:43.074Z,102311.38
2022-11-30T13:57:13.297Z,102318.69
2022-11-30T14:00:01.744Z,102313.91
2022-11-30T14:02:33.134Z,102321.78
2022-11-30T14:05:03.107Z,102315.88
2022-11-30T14:07:33.121Z,102323.19
2022-11-30T14:10:00.183Z,102318.13
2022-11-30T14:12:30.179Z,102320.66
2022-11-30T14:14:57.618Z,102321.50
2022-11-30T14:17:26.834Z,102316.72
2022-11-30T14:19:58.556Z,102319.22
2022-11-30T14:22:26.754Z,102317.00
2022-11-30T14:24:54.410Z,102317.84
2022-11-30T14:27:23.673Z,102313.06
2022-11-30T14:29:53.600Z,102328.78
2022-11-30T14:32:26.122Z,102316.69
2022-11-30T14:34:56.391Z,102317.25
2022-11-30T14:37:26.803Z,102322.88
2022-11-30T14:39:57.017Z,102316.41
2022-11-30T14:42:25.910Z,102321.78
2022-11-30T14:44:53.581Z,102325.44
2022-11-30T14:47:21.023Z,102320.91
2022-11-30T14:49:52.215Z,102335.84
2022-11-30T14:52:22.310Z,102324.28
2022-11-30T14:54:51.060Z,102315.03
2022-11-30T14:57:21.181Z,102321.78
2022-11-30T14:59:50.243Z,102317.84
2022-11-30T15:02:20.992Z,102321.78
2022-11-30T15:04:49.700Z,102327.41
2022-11-30T15:07:17.105Z,102327.13
2022-11-30T15:09:45.387Z,102328.25
2022-11-30T15:12:17.144Z,102331.31
2022-11-30T15:15:02.310Z,102336.09
2022-11-30T15:17:29.499Z,102336.09
2022-11-30T15:19:56.600Z,102345.97
2022-11-30T15:22:24.231Z,102336.09
2022-11-30T15:24:51.489Z,102335.56
2022-11-30T15:27:22.252Z,102331.31
2022-11-30T15:29:57.568Z,102334.44
2022-11-30T15:32:25.238Z,102330.50
2022-11-30T15:34:56.880Z,102331.91
2022-11-30T15:37:27.415Z,102336.97
2022-11-30T15:39:56.206Z,102335.53
2022-11-30T15:42:29.239Z,102342.00
2022-11-30T15:45:00.921Z,102339.78
2022-11-30T15:47:31.381Z,102334.13
2022-11-30T15:50:17.579Z,102343.94
2022-11-30T15:52:45.491Z,102346.75
2022-11-30T15:55:32.429Z,102343.13
2022-11-30T15:58:01.052Z,102337.22
2022-11-30T16:00:32.972Z,102348.47
2022-11-30T16:03:03.149Z,102348.19
2022-11-30T16:05:30.402Z,102349.31
2022-11-30T16:08:00.409Z,102357.47
2022-11-30T16:10:30.620Z,102349.91
2022-11-30T16:12:57.667Z,102343.44
2022-11-30T16:15:27.571Z,102358.03
2022-11-30T16:17:57.633Z,102352.13
2022-11-30T16:20:25.388Z,102347.06
2022-11-30T16:22:52.934Z,102351.88
2022-11-30T16:25:22.124Z,102363.66
2022-11-30T16:27:49.745Z,102359.72
2022-11-30T16:30:20.052Z,102365.63
2022-11-30T16:32:47.399Z,102368.44
2022-11-30T16:35:17.703Z,102375.75
2022-11-30T16:37:45.192Z,102379.13
2022-11-30T16:40:13.840Z,102375.19
2022-11-30T16:42:41.667Z,102383.38
2022-11-30T16:45:14.241Z,102381.66
2022-11-30T16:47:45.199Z,102381.41
2022-11-30T16:50:13.426Z,102383.09
2022-11-30T16:55:15.203Z,102379.13
2022-11-30T16:57:42.546Z,102389.25
2022-11-30T17:00:12.763Z,102386.44
2022-11-30T17:02:43.609Z,102383.63
2022-11-30T17:05:13.188Z,102388.16
2022-11-30T17:07:46.400Z,102386.19
2022-11-30T17:10:14.399Z,102389.00
2022-11-30T17:12:41.492Z,102395.72
2022-11-30T17:15:20.818Z,102406.13
2022-11-30T17:17:50.898Z,102410.06
2022-11-30T17:20:19.486Z,102414.03
2022-11-30T17:22:46.136Z,102415.16
2022-11-30T17:25:17.135Z,102419.06
2022-11-30T17:27:44.384Z,102421.31
2022-11-30T17:30:11.732Z,102424.69
2022-11-30T17:32:38.336Z,102423.56
2022-11-30T17:35:05.065Z,102419.63
2022-11-30T17:37:31.703Z,102425.53
2022-11-30T17:39:59.023Z,102425.81
2022-11-30T17:42:25.668Z,102428.06
2022-11-30T17:44:52.307Z,102434.22
2022-11-30T17:47:24.216Z,102434.22
2022-11-30T17:49:51.332Z,102437.34
2022-11-30T17:52:18.097Z,102442.97
2022-11-30T17:54:44.844Z,102436.78
2022-11-30T17:57:11.757Z,102444.09
2022-11-30T17:59:38.356Z,102445.78
2022-11-30T18:02:05.241Z,102447.19
2022-11-30T18:04:32.633Z,102444.38
2022-11-30T18:06:59.300Z,102442.97
2022-11-30T18:09:31.377Z,102446.63
2022-11-30T18:11:58.103Z,102448.06
2022-11-30T18:14:24.842Z,102450.56
2022-11-30T18:16:51.496Z,102465.22
2022-11-30T18:19:18.201Z,102455.94
2022-11-30T18:21:45.263Z,102457.63
2022-11-30T18:24:12.570Z,102460.72
2022-11-30T18:26:40.443Z,102468.03
2022-11-30T18:29:10.302Z,102466.91
2022-11-30T18:31:36.873Z,102464.94
2022-11-30T18:34:06.711Z,102465.78
2022-11-30T18:36:33.780Z,102471.97
2022-11-30T18:39:00.559Z,102467.19
2022-11-30T18:41:28.752Z,102470.56
2022-11-30T18:43:55.561Z,102474.22
2022-11-30T18:46:22.260Z,102473.38
2022-11-30T18:48:50.557Z,102472.81
2022-11-30T18:51:35.567Z,102484.66
2022-11-30T18:54:04.008Z,102483.22
2022-11-30T18:56:32.010Z,102482.94
2022-11-30T18:59:02.963Z,102488.28
2022-11-30T19:01:30.380Z,102488.81
2022-11-30T19:03:58.473Z,102487.41
2022-11-30T19:06:28.232Z,102485.72
2022-11-30T19:08:54.959Z,102481.19
2022-11-30T19:11:21.579Z,102479.78
2022-11-30T19:13:48.270Z,102486.81
2022-11-30T19:16:18.047Z,102487.09
2022-11-30T19:18:47.636Z,102486.50
2022-11-30T19:21:18.004Z,102478.94
2022-11-30T19:23:45.262Z,102487.06
2022-11-30T19:26:21.696Z,102487.63
2022-11-30T19:28:48.317Z,102491.56
2022-11-30T19:31:15.970Z,102488.19
2022-11-30T19:33:43.924Z,102484.81
2022-11-30T19:36:19.947Z,102490.16
2022-11-30T19:38:46.611Z,102495.19
2022-11-30T19:41:14.172Z,102483.09
2022-11-30T19:43:41.271Z,102487.88
2022-11-30T19:46:17.536Z,102494.91
2022-11-30T19:48:44.652Z,102493.47
2022-11-30T19:51:17.622Z,102502.75
2022-11-30T19:53:45.306Z,102506.09
2022-11-30T19:56:19.236Z,102503.56
2022-11-30T19:58:46.349Z,102509.44
2022-11-30T20:01:13.494Z,102500.19
2022-11-30T20:03:40.545Z,102510.84
2022-11-30T20:06:13.133Z,102507.44
2022-11-30T20:08:40.137Z,102512.50
2022-11-30T20:11:11.747Z,102518.41
2022-11-30T20:13:38.462Z,102517.84
2022-11-30T20:16:19.888Z,102513.88
2022-11-30T20:18:51.586Z,102517.22
2022-11-30T20:21:19.411Z,102517.22
2022-11-30T20:23:47.319Z,102518.03
2022-11-30T20:26:20.921Z,102524.78
2022-11-30T20:28:48.218Z,102525.91
2022-11-30T20:31:16.074Z,102519.44
2022-11-30T20:33:42.918Z,102536.31
2022-11-30T20:36:23.611Z,102522.22
2022-11-30T20:38:50.287Z,102527.84
2022-11-30T20:41:21.193Z,102535.41
2022-11-30T20:43:48.306Z,102529.53
2022-11-30T20:46:22.321Z,102534.00
2022-11-30T20:48:49.387Z,102534.59
2022-11-30T20:51:33.448Z,102535.47
2022-11-30T20:54:05.799Z,102543.38
2022-11-30T20:56:33.027Z,102554.41
2022-11-30T20:59:03.330Z,102550.78
2022-11-30T21:01:30.420Z,102555.31
2022-11-30T21:03:57.334Z,102551.69
2022-11-30T21:06:28.174Z,102552.81
2022-11-30T21:08:54.816Z,102555.66
2022-11-30T21:11:21.828Z,102546.97
2022-11-30T21:13:49.594Z,102564.13
2022-11-30T21:16:27.111Z,102566.09
2022-11-30T21:18:54.882Z,102556.84
2022-11-30T21:21:23.344Z,102548.16
2022-11-30T21:23:50.325Z,102552.38
2022-11-30T21:26:23.743Z,102546.19
2022-11-30T21:28:53.346Z,102546.50
2022-11-30T21:31:20.667Z,102547.63
2022-11-30T21:33:52.673Z,102558.31
2022-11-30T21:36:22.289Z,102564.25
2022-11-30T21:38:52.749Z,102570.19
2022-11-30T21:41:19.379Z,102567.06
2022-11-30T21:43:45.970Z,102572.97
2022-11-30T21:46:25.391Z,102568.78
2022-11-30T21:48:52.695Z,102582.59
2022-11-30T21:51:20.692Z,102578.63
2022-11-30T21:53:48.273Z,102579.22
2022-11-30T21:56:27.522Z,102580.91
2022-11-30T21:58:54.689Z,102582.56
2022-11-30T22:01:28.856Z,102579.50
2022-11-30T22:03:56.469Z,102586.81
2022-11-30T22:06:25.819Z,102584.84
2022-11-30T22:08:52.562Z,102578.38
2022-11-30T22:11:20.596Z,102580.91
2022-11-30T22:13:54.051Z,102583.44
2022-11-30T22:16:21.664Z,102594.19
2022-11-30T22:18:48.722Z,102588.25
2022-11-30T22:21:17.161Z,102589.13
2022-11-30T22:23:45.086Z,102592.22
2022-11-30T22:26:18.829Z,102598.16
2022-11-30T22:28:47.729Z,102597.59
2022-11-30T22:31:15.248Z,102604.34
2022-11-30T22:33:42.949Z,102602.09
2022-11-30T22:36:20.982Z,102605.22
2022-11-30T22:38:48.096Z,102611.13
2022-11-30T22:41:16.237Z,102610.00
2022-11-30T22:43:44.142Z,102607.47
2022-11-30T22:46:15.401Z,102599.88
2022-11-30T22:48:42.556Z,102604.06
2022-11-30T22:51:10.710Z,102609.44
2022-11-30T22:53:37.518Z,102604.66
2022-11-30T22:56:17.010Z,102608.31
2022-11-30T22:58:44.196Z,102618.47
2022-11-30T23:01:13.521Z,102611.69
2022-11-30T23:03:40.820Z,102615.94
2022-11-30T23:06:08.146Z,102611.16
2022-11-30T23:08:35.173Z,102610.84
2022-11-30T23:11:03.694Z,102601.28
2022-11-30T23:13:30.742Z,102607.75
2022-11-30T23:15:57.933Z,102608.03
2022-11-30T23:18:34.966Z,102617.31
2022-11-30T23:21:06.189Z,102612.28
2022-11-30T23:23:33.204Z,102605.22
2022-11-30T23:26:16.944Z,102608.63
2022-11-30T23:28:44.942Z,102599.84
2022-11-30T23:31:34.027Z,102602.13
2022-11-30T23:34:00.078Z,102606.66
2022-11-30T23:36:27.337Z,102608.88
2022-11-30T23:38:56.490Z,102611.44
2022-11-30T23:41:23.447Z,102622.13
2022-11-30T23:43:50.526Z,102615.06
2022-11-30T23:46:17.493Z,102618.19
2022-11-30T23:48:44.735Z,102617.63
2022-11-30T23:51:11.584Z,102612.53
2022-11-30T23:53:38.385Z,102621.31
2022-11-30T23:56:13.261Z,102614.53
2022-11-30T23:58:39.901Z,102610.59
